createdAt,value
2023-05-12T00:00:52.209Z,994.50
2023-05-12T00:01:52.174Z,994.50
2023-05-12T00:02:52.236Z,994.50
2023-05-12T00:03:52.229Z,994.50
2023-05-12T00:04:52.313Z,994.50
2023-05-12T00:05:52.133Z,994.52
2023-05-12T00:06:52.123Z,994.52
2023-05-12T00:07:52.094Z,994.53
2023-05-12T00:08:52.100Z,994.56
2023-05-12T00:09:52.079Z,994.57
2023-05-12T00:10:52.067Z,994.57
2023-05-12T00:11:52.050Z,994.58
2023-05-12T00:12:52.039Z,994.57
2023-05-12T00:13:52.060Z,994.56
2023-05-12T00:14:52.034Z,994.57
2023-05-12T00:15:52.019Z,994.58
2023-05-12T00:16:52.058Z,994.60
2023-05-12T00:17:52.006Z,994.60
2023-05-12T00:18:52.101Z,994.61
2023-05-12T00:19:51.962Z,994.61
2023-05-12T00:20:51.978Z,994.61
2023-05-12T00:21:51.941Z,994.60
2023-05-12T00:22:51.973Z,994.61
2023-05-12T00:23:51.938Z,994.60
2023-05-12T00:24:51.921Z,994.61
2023-05-12T00:25:51.930Z,994.60
2023-05-12T00:26:51.917Z,994.61
2023-05-12T00:27:51.888Z,994.60
2023-05-12T00:28:51.905Z,994.58
2023-05-12T00:29:51.875Z,994.57
2023-05-12T00:30:51.855Z,994.58
2023-05-12T00:31:51.946Z,994.57
2023-05-12T00:32:51.915Z,994.58
2023-05-12T00:33:51.815Z,994.57
2023-05-12T00:34:51.804Z,994.56
2023-05-12T00:35:51.807Z,994.55
2023-05-12T00:36:51.802Z,994.54
2023-05-12T00:37:51.809Z,994.53
2023-05-12T00:38:51.762Z,994.53
2023-05-12T00:39:51.758Z,994.53
2023-05-12T00:40:51.737Z,994.52
2023-05-12T00:41:51.753Z,994.51
2023-05-12T00:42:51.717Z,994.50
2023-05-12T00:43:51.703Z,994.50
2023-05-12T00:44:51.738Z,994.49
2023-05-12T00:45:51.754Z,994.46
2023-05-12T00:46:51.708Z,994.43
2023-05-12T00:47:51.696Z,994.43
2023-05-12T00:48:51.652Z,994.43
2023-05-12T00:49:51.699Z,994.43
2023-05-12T00:50:51.653Z,994.43
2023-05-12T00:51:51.662Z,994.42
2023-05-12T00:52:51.615Z,994.42
2023-05-12T00:53:51.602Z,994.42
2023-05-12T00:54:51.595Z,994.41
2023-05-12T00:55:51.666Z,994.41
2023-05-12T00:56:51.568Z,994.41
2023-05-12T00:57:51.562Z,994.42
2023-05-12T00:58:51.552Z,994.43
2023-05-12T00:59:51.539Z,994.43
2023-05-12T01:00:51.610Z,994.43
2023-05-12T01:01:51.515Z,994.44
2023-05-12T01:02:51.619Z,994.45
2023-05-12T01:03:51.494Z,994.46
2023-05-12T01:04:51.520Z,994.46
2023-05-12T01:05:51.485Z,994.47
2023-05-12T01:06:51.475Z,994.47
2023-05-12T01:07:51.471Z,994.48
2023-05-12T01:08:51.438Z,994.48
2023-05-12T01:09:51.444Z,994.48
2023-05-12T01:10:51.442Z,994.48
2023-05-12T01:11:51.412Z,994.49
2023-05-12T01:12:51.404Z,994.50
2023-05-12T01:13:51.427Z,994.50
2023-05-12T01:14:51.401Z,994.50
2023-05-12T01:15:51.367Z,994.51
2023-05-12T01:16:51.442Z,994.52
2023-05-12T01:17:51.412Z,994.52
2023-05-12T01:18:51.541Z,994.52
2023-05-12T01:19:51.342Z,994.52
2023-05-12T01:20:51.374Z,994.53
2023-05-12T01:21:51.301Z,994.53
2023-05-12T01:22:51.304Z,994.54
2023-05-12T01:23:51.317Z,994.54
2023-05-12T01:24:51.305Z,994.54
2023-05-12T01:25:51.262Z,994.55
2023-05-12T01:26:51.273Z,994.55
2023-05-12T01:27:51.278Z,994.55
2023-05-12T01:28:51.263Z,994.55
2023-05-12T01:29:51.221Z,994.56
2023-05-12T01:30:51.241Z,994.57
2023-05-12T01:31:51.192Z,994.57
2023-05-12T01:32:51.264Z,994.58
2023-05-12T01:33:51.217Z,994.59
2023-05-12T01:34:51.166Z,994.61
2023-05-12T01:35:51.149Z,994.63
2023-05-12T01:36:51.161Z,994.64
2023-05-12T01:37:51.169Z,994.64
2023-05-12T01:38:51.143Z,994.65
2023-05-12T01:39:51.111Z,994.65
2023-05-12T01:40:51.099Z,994.66
2023-05-12T01:41:51.104Z,994.67
2023-05-12T01:42:51.114Z,994.67
2023-05-12T01:43:51.065Z,994.68
2023-05-12T01:44:51.129Z,994.69
2023-05-12T01:45:51.049Z,994.70
2023-05-12T01:46:51.138Z,994.72
2023-05-12T01:47:51.120Z,994.73
2023-05-12T01:48:51.015Z,994.73
2023-05-12T01:49:51.021Z,994.73
2023-05-12T01:50:51.024Z,994.74
2023-05-12T01:51:51.025Z,994.73
2023-05-12T01:52:50.983Z,994.74
2023-05-12T01:53:50.973Z,994.74
2023-05-12T01:54:50.945Z,994.75
2023-05-12T01:55:50.945Z,994.75
2023-05-12T01:56:50.959Z,994.75
2023-05-12T01:57:50.923Z,994.75
2023-05-12T01:58:50.974Z,994.75
2023-05-12T01:59:50.907Z,994.75
2023-05-12T02:00:50.905Z,994.76
2023-05-12T02:01:51.021Z,994.76
2023-05-12T02:02:51.020Z,994.75
2023-05-12T02:03:50.929Z,994.75
2023-05-12T02:04:50.865Z,994.74
2023-05-12T02:05:50.853Z,994.74
2023-05-12T02:06:50.816Z,994.74
2023-05-12T02:07:50.850Z,994.73
2023-05-12T02:08:50.797Z,994.72
2023-05-12T02:09:50.795Z,994.72
2023-05-12T02:10:50.820Z,994.71
2023-05-12T02:11:50.788Z,994.71
2023-05-12T02:12:50.752Z,994.71
2023-05-12T02:13:50.789Z,994.71
2023-05-12T02:14:50.750Z,994.71
2023-05-12T02:15:50.747Z,994.71
2023-05-12T02:16:50.966Z,994.71
2023-05-12T02:17:50.768Z,994.70
2023-05-12T02:18:50.724Z,994.69
2023-05-12T02:19:50.752Z,994.69
2023-05-12T02:20:50.700Z,994.70
2023-05-12T02:21:50.690Z,994.70
2023-05-12T02:22:50.647Z,994.69
2023-05-12T02:23:50.658Z,994.69
2023-05-12T02:24:50.661Z,994.68
2023-05-12T02:25:50.648Z,994.69
2023-05-12T02:26:50.596Z,994.69
2023-05-12T02:27:50.609Z,994.69
2023-05-12T02:28:50.603Z,994.69
2023-05-12T02:29:50.599Z,994.69
2023-05-12T02:30:50.592Z,994.70
2023-05-12T02:31:50.698Z,994.69
2023-05-12T02:32:50.580Z,994.70
2023-05-12T02:33:50.579Z,994.70
2023-05-12T02:34:50.539Z,994.71
2023-05-12T02:35:50.573Z,994.72
2023-05-12T02:36:50.503Z,994.72
2023-05-12T02:37:50.489Z,994.72
2023-05-12T02:38:50.488Z,994.71
2023-05-12T02:39:50.474Z,994.72
2023-05-12T02:40:50.455Z,994.71
2023-05-12T02:41:50.465Z,994.71
2023-05-12T02:42:50.456Z,994.72
2023-05-12T02:43:50.487Z,994.73
2023-05-12T02:44:50.425Z,994.73
2023-05-12T02:45:50.454Z,994.74
2023-05-12T02:46:50.391Z,994.74
2023-05-12T02:47:50.517Z,994.74
2023-05-12T02:48:50.378Z,994.74
2023-05-12T02:49:50.372Z,994.74
2023-05-12T02:50:50.349Z,994.76
2023-05-12T02:51:50.370Z,994.76
2023-05-12T02:52:50.364Z,994.76
2023-05-12T02:53:50.346Z,994.76
2023-05-12T02:54:50.311Z,994.76
2023-05-12T02:55:50.262Z,994.76
2023-05-12T02:56:50.300Z,994.77
2023-05-12T02:57:50.322Z,994.77
2023-05-12T02:58:50.291Z,994.78
2023-05-12T02:59:50.266Z,994.79
2023-05-12T03:00:59.729Z,994.80
2023-05-12T03:01:50.288Z,994.81
2023-05-12T03:02:50.324Z,994.80
2023-05-12T03:03:50.230Z,994.79
2023-05-12T03:04:50.228Z,994.80
2023-05-12T03:05:50.204Z,994.80
2023-05-12T03:06:50.251Z,994.80
2023-05-12T03:07:50.195Z,994.80
2023-05-12T03:08:50.176Z,994.80
2023-05-12T03:09:50.161Z,994.80
2023-05-12T03:10:50.112Z,994.81
2023-05-12T03:11:50.152Z,994.80
2023-05-12T03:12:50.160Z,994.79
2023-05-12T03:13:50.117Z,994.79
2023-05-12T03:14:50.055Z,994.79
2023-05-12T03:15:50.075Z,994.78
2023-05-12T03:16:50.076Z,994.77
2023-05-12T03:17:50.098Z,994.77
2023-05-12T03:18:50.057Z,994.78
2023-05-12T03:19:50.019Z,994.79
2023-05-12T03:20:50.053Z,994.80
2023-05-12T03:21:49.975Z,994.81
2023-05-12T03:22:49.973Z,994.81
2023-05-12T03:23:49.954Z,994.81
2023-05-12T03:24:49.958Z,994.82
2023-05-12T03:25:49.968Z,994.82
2023-05-12T03:26:49.911Z,994.81
2023-05-12T03:27:49.912Z,994.80
2023-05-12T03:28:49.896Z,994.80
2023-05-12T03:29:49.929Z,994.82
2023-05-12T03:30:49.882Z,994.83
2023-05-12T03:31:49.934Z,994.84
2023-05-12T03:32:49.928Z,994.84
2023-05-12T03:33:49.857Z,994.85
2023-05-12T03:34:49.934Z,994.85
2023-05-12T03:35:49.832Z,994.85
2023-05-12T03:36:49.856Z,994.85
2023-05-12T03:37:49.813Z,994.84
2023-05-12T03:38:49.807Z,994.83
2023-05-12T03:39:49.988Z,994.83
2023-05-12T03:40:49.802Z,994.84
2023-05-12T03:41:49.770Z,994.85
2023-05-12T03:42:49.750Z,994.86
2023-05-12T03:43:49.753Z,994.86
2023-05-12T03:44:49.720Z,994.84
2023-05-12T03:45:49.717Z,994.83
2023-05-12T03:46:49.844Z,994.83
2023-05-12T03:47:49.787Z,994.82
2023-05-12T03:48:49.732Z,994.82
2023-05-12T03:49:49.678Z,994.82
2023-05-12T03:50:49.652Z,994.84
2023-05-12T03:51:49.704Z,994.84
2023-05-12T03:52:49.677Z,994.85
2023-05-12T03:53:49.658Z,994.85
2023-05-12T03:54:49.619Z,994.84
2023-05-12T03:55:49.614Z,994.85
2023-05-12T03:56:49.597Z,994.85
2023-05-12T03:57:49.600Z,994.86
2023-05-12T03:58:49.583Z,994.87
2023-05-12T03:59:49.606Z,994.88
2023-05-12T04:00:49.565Z,994.88
2023-05-12T04:01:49.603Z,994.88
2023-05-12T04:02:49.716Z,994.88
2023-05-12T04:03:49.763Z,994.88
2023-05-12T04:04:49.554Z,994.88
2023-05-12T04:05:49.509Z,994.87
2023-05-12T04:06:49.531Z,994.85
2023-05-12T04:07:49.478Z,994.84
2023-05-12T04:08:49.463Z,994.85
2023-05-12T04:09:49.462Z,994.87
2023-05-12T04:10:49.478Z,994.88
2023-05-12T04:11:49.462Z,994.89
2023-05-12T04:12:49.456Z,994.90
2023-05-12T04:13:49.482Z,994.90
2023-05-12T04:14:49.414Z,994.91
2023-05-12T04:15:49.422Z,994.92
2023-05-12T04:16:49.453Z,994.93
2023-05-12T04:17:49.461Z,994.94
2023-05-12T04:18:49.454Z,994.94
2023-05-12T04:19:49.450Z,994.96
2023-05-12T04:20:49.561Z,994.97
2023-05-12T04:21:49.334Z,994.98
2023-05-12T04:22:49.323Z,995.00
2023-05-12T04:23:49.306Z,994.99
2023-05-12T04:24:49.294Z,994.99
2023-05-12T04:25:49.310Z,994.99
2023-05-12T04:26:49.268Z,994.99
2023-05-12T04:27:49.267Z,995.00
2023-05-12T04:28:49.267Z,995.00
2023-05-12T04:29:49.258Z,994.99
2023-05-12T04:30:49.253Z,995.00
2023-05-12T04:31:49.301Z,995.01
2023-05-12T04:32:49.279Z,995.01
2023-05-12T04:33:49.200Z,995.01
2023-05-12T04:34:49.216Z,995.03
2023-05-12T04:35:49.176Z,995.04
2023-05-12T04:36:49.166Z,995.04
2023-05-12T04:37:49.212Z,995.04
2023-05-12T04:38:49.151Z,995.04
2023-05-12T04:39:49.148Z,995.04
2023-05-12T04:40:49.167Z,995.05
2023-05-12T04:41:49.148Z,995.04
2023-05-12T04:42:49.102Z,995.06
2023-05-12T04:44:49.111Z,995.07
2023-05-12T04:45:49.084Z,995.09
2023-05-12T04:46:49.057Z,995.11
2023-05-12T04:47:49.136Z,995.14
2023-05-12T04:48:49.050Z,995.16
2023-05-12T04:49:49.031Z,995.18
2023-05-12T04:50:49.014Z,995.20
2023-05-12T04:51:49.015Z,995.21
2023-05-12T04:52:48.996Z,995.22
2023-05-12T04:53:49.010Z,995.24
2023-05-12T04:54:49.001Z,995.25
2023-05-12T04:55:48.980Z,995.26
2023-05-12T04:56:48.956Z,995.27
2023-05-12T04:57:48.987Z,995.28
2023-05-12T04:58:48.958Z,995.29
2023-05-12T04:59:48.937Z,995.31
2023-05-12T05:00:48.931Z,995.33
2023-05-12T05:01:48.973Z,995.34
2023-05-12T05:02:48.972Z,995.35
2023-05-12T05:03:49.028Z,995.35
2023-05-12T05:04:48.865Z,995.36
2023-05-12T05:05:48.868Z,995.38
2023-05-12T05:06:48.866Z,995.40
2023-05-12T05:07:48.882Z,995.42
2023-05-12T05:08:48.825Z,995.44
2023-05-12T05:09:48.836Z,995.45
2023-05-12T05:10:48.815Z,995.46
2023-05-12T05:11:48.843Z,995.45
2023-05-12T05:12:48.885Z,995.46
2023-05-12T05:13:48.779Z,995.47
2023-05-12T05:14:48.789Z,995.49
2023-05-12T05:15:48.789Z,995.50
2023-05-12T05:16:48.802Z,995.51
2023-05-12T05:17:48.773Z,995.52
2023-05-12T05:18:48.764Z,995.53
2023-05-12T05:19:55.953Z,995.53
2023-05-12T05:21:48.736Z,995.53
2023-05-12T05:22:48.678Z,995.54
2023-05-12T05:23:48.683Z,995.54
2023-05-12T05:24:48.754Z,995.54
2023-05-12T05:25:48.673Z,995.54
2023-05-12T05:26:48.650Z,995.53
2023-05-12T05:27:48.629Z,995.53
2023-05-12T05:28:48.649Z,995.53
2023-05-12T05:29:48.603Z,995.52
2023-05-12T05:30:48.995Z,995.53
2023-05-12T05:31:48.628Z,995.53
2023-05-12T05:32:48.645Z,995.53
2023-05-12T05:33:48.633Z,995.54
2023-05-12T05:34:48.547Z,995.55
2023-05-12T05:35:49.063Z,995.57
2023-05-12T05:36:48.542Z,995.59
2023-05-12T05:37:48.529Z,995.59
2023-05-12T05:38:48.536Z,995.60
2023-05-12T05:39:48.499Z,995.62
2023-05-12T05:40:53.665Z,995.64
2023-05-12T05:41:48.493Z,995.66
2023-05-12T05:42:48.478Z,995.67
2023-05-12T05:43:48.455Z,995.68
2023-05-12T05:44:48.458Z,995.69
2023-05-12T05:45:48.482Z,995.70
2023-05-12T05:46:48.475Z,995.71
2023-05-12T05:47:48.531Z,995.72
2023-05-12T05:48:48.408Z,995.72
2023-05-12T05:49:48.437Z,995.72
2023-05-12T05:50:48.406Z,995.72
2023-05-12T05:51:48.369Z,995.72
2023-05-12T05:52:48.369Z,995.72
2023-05-12T05:53:48.358Z,995.72
2023-05-12T05:54:48.917Z,995.73
2023-05-12T05:55:48.416Z,995.72
2023-05-12T05:56:48.411Z,995.74
2023-05-12T05:57:48.385Z,995.75
2023-05-12T05:58:49.333Z,995.75
2023-05-12T05:59:48.452Z,995.75
2023-05-12T06:00:48.293Z,995.75
2023-05-12T06:01:48.325Z,995.76
2023-05-12T06:02:48.462Z,995.76
2023-05-12T06:03:48.383Z,995.76
2023-05-12T06:04:48.231Z,995.76
2023-05-12T06:05:48.223Z,995.76
2023-05-12T06:06:48.237Z,995.77
2023-05-12T06:07:48.224Z,995.78
2023-05-12T06:08:48.209Z,995.79
2023-05-12T06:09:48.167Z,995.80
2023-05-12T06:10:48.175Z,995.80
2023-05-12T06:11:48.171Z,995.81
2023-05-12T06:12:48.180Z,995.82
2023-05-12T06:13:48.155Z,995.83
2023-05-12T06:14:48.120Z,995.85
2023-05-12T06:15:48.123Z,995.86
2023-05-12T06:16:48.190Z,995.88
2023-05-12T06:17:48.224Z,995.89
2023-05-12T06:18:48.147Z,995.91
2023-05-12T06:19:48.056Z,995.91
2023-05-12T06:20:48.055Z,995.92
2023-05-12T06:21:48.053Z,995.93
2023-05-12T06:22:48.050Z,995.93
2023-05-12T06:23:48.027Z,995.93
2023-05-12T06:24:48.045Z,995.93
2023-05-12T06:25:47.989Z,995.93
2023-05-12T06:26:47.990Z,995.93
2023-05-12T06:27:48.008Z,995.93
2023-05-12T06:28:47.967Z,995.92
2023-05-12T06:29:47.955Z,995.91
2023-05-12T06:30:47.958Z,995.90
2023-05-12T06:31:48.035Z,995.91
2023-05-12T06:32:48.010Z,995.92
2023-05-12T06:33:47.938Z,995.92
2023-05-12T06:34:47.900Z,995.92
2023-05-12T06:35:47.885Z,995.93
2023-05-12T06:36:47.904Z,995.92
2023-05-12T06:37:47.872Z,995.92
2023-05-12T06:38:47.880Z,995.92
2023-05-12T06:39:47.857Z,995.94
2023-05-12T06:40:47.842Z,995.95
2023-05-12T06:41:47.845Z,995.95
2023-05-12T06:42:47.892Z,995.96
2023-05-12T06:43:47.800Z,995.96
2023-05-12T06:44:47.808Z,995.98
2023-05-12T06:45:47.827Z,995.99
2023-05-12T06:46:47.896Z,996.02
2023-05-12T06:47:47.809Z,996.03
2023-05-12T06:48:47.756Z,996.03
2023-05-12T06:49:47.750Z,996.03
2023-05-12T06:50:47.751Z,996.02
2023-05-12T06:51:47.842Z,996.02
2023-05-12T06:52:47.720Z,996.01
2023-05-12T06:53:47.704Z,996.00
2023-05-12T06:54:47.696Z,995.98
2023-05-12T06:55:47.713Z,995.98
2023-05-12T06:56:47.705Z,995.98
2023-05-12T06:57:47.705Z,995.99
2023-05-12T06:58:47.658Z,996.00
2023-05-12T06:59:47.707Z,996.02
2023-05-12T07:00:47.653Z,996.02
2023-05-12T07:01:47.632Z,996.03
2023-05-12T07:02:47.662Z,996.03
2023-05-12T07:03:47.650Z,996.02
2023-05-12T07:04:47.678Z,996.01
2023-05-12T07:05:47.593Z,996.01
2023-05-12T07:06:47.578Z,996.01
2023-05-12T07:07:47.542Z,996.02
2023-05-12T07:08:47.550Z,996.02
2023-05-12T07:09:47.534Z,996.03
2023-05-12T07:10:47.549Z,996.04
2023-05-12T07:11:47.505Z,996.03
2023-05-12T07:12:47.495Z,996.02
2023-05-12T07:13:47.517Z,996.02
2023-05-12T07:14:47.499Z,996.02
2023-05-12T07:15:47.500Z,996.01
2023-05-12T07:16:47.551Z,996.02
2023-05-12T07:17:47.484Z,996.01
2023-05-12T07:18:47.576Z,996.00
2023-05-12T07:19:47.416Z,995.98
2023-05-12T07:20:47.416Z,995.98
2023-05-12T07:21:47.491Z,995.98
2023-05-12T07:22:47.392Z,995.97
2023-05-12T07:23:47.400Z,995.98
2023-05-12T07:24:47.373Z,995.97
2023-05-12T07:25:47.376Z,995.95
2023-05-12T07:26:47.388Z,995.95
2023-05-12T07:27:47.334Z,995.93
2023-05-12T07:28:47.316Z,995.93
2023-05-12T07:29:47.317Z,995.92
2023-05-12T07:30:47.332Z,995.91
2023-05-12T07:31:47.388Z,995.90
2023-05-12T07:32:47.386Z,995.89
2023-05-12T07:33:47.316Z,995.90
2023-05-12T07:34:47.275Z,995.89
2023-05-12T07:35:47.692Z,995.88
2023-05-12T07:36:47.248Z,995.88
2023-05-12T07:37:47.240Z,995.87
2023-05-12T07:38:47.222Z,995.87
2023-05-12T07:39:47.557Z,995.85
2023-05-12T07:40:47.197Z,995.84
2023-05-12T07:41:47.201Z,995.82
2023-05-12T07:42:47.333Z,995.81
2023-05-12T07:43:47.172Z,995.79
2023-05-12T07:44:47.156Z,995.78
2023-05-12T07:45:47.136Z,995.76
2023-05-12T07:46:47.207Z,995.76
2023-05-12T07:47:47.262Z,995.75
2023-05-12T07:48:47.129Z,995.76
2023-05-12T07:49:47.096Z,995.74
2023-05-12T07:50:47.095Z,995.72
2023-05-12T07:51:47.092Z,995.71
2023-05-12T07:52:47.077Z,995.70
2023-05-12T07:53:47.065Z,995.67
2023-05-12T07:54:47.057Z,995.65
2023-05-12T07:55:47.517Z,995.63
2023-05-12T07:56:47.066Z,995.61
2023-05-12T07:57:47.090Z,995.59
2023-05-12T07:58:47.615Z,995.58
2023-05-12T07:59:47.023Z,995.58
2023-05-12T08:00:47.008Z,995.57
2023-05-12T08:01:47.366Z,995.57
2023-05-12T08:02:47.056Z,995.55
2023-05-12T08:03:47.070Z,995.55
2023-05-12T08:04:46.950Z,995.53
2023-05-12T08:05:46.937Z,995.53
2023-05-12T08:06:46.915Z,995.52
2023-05-12T08:07:46.895Z,995.51
2023-05-12T08:08:46.908Z,995.53
2023-05-12T08:09:47.176Z,995.53
2023-05-12T08:10:46.923Z,995.54
2023-05-12T08:11:48.775Z,995.54
2023-05-12T08:12:46.859Z,995.52
2023-05-12T08:13:46.865Z,995.50
2023-05-12T08:14:46.882Z,995.50
2023-05-12T08:15:46.851Z,995.50
2023-05-12T08:16:46.844Z,995.49
2023-05-12T08:17:46.806Z,995.51
2023-05-12T08:18:46.899Z,995.50
2023-05-12T08:19:46.801Z,995.50
2023-05-12T08:20:46.770Z,995.49
2023-05-12T08:21:46.761Z,995.49
2023-05-12T08:22:46.756Z,995.48
2023-05-12T08:23:46.761Z,995.46
2023-05-12T08:24:46.916Z,995.43
2023-05-12T08:25:46.705Z,995.45
2023-05-12T08:26:46.699Z,995.46
2023-05-12T08:27:46.768Z,995.45
2023-05-12T08:28:46.705Z,995.44
2023-05-12T08:29:46.686Z,995.44
2023-05-12T08:30:46.679Z,995.45
2023-05-12T08:31:46.640Z,995.45
2023-05-12T08:32:46.712Z,995.45
2023-05-12T08:33:51.735Z,995.45
2023-05-12T08:34:46.666Z,995.44
2023-05-12T08:35:46.689Z,995.44
2023-05-12T08:36:46.665Z,995.44
2023-05-12T08:37:46.851Z,995.44
2023-05-12T08:38:46.623Z,995.44
2023-05-12T08:39:46.570Z,995.42
2023-05-12T08:40:46.564Z,995.41
2023-05-12T08:41:46.552Z,995.42
2023-05-12T08:42:46.588Z,995.41
2023-05-12T08:43:46.553Z,995.43
2023-05-12T08:44:46.541Z,995.44
2023-05-12T08:45:46.519Z,995.44
2023-05-12T08:46:46.593Z,995.45
2023-05-12T08:47:46.625Z,995.47
2023-05-12T08:48:46.487Z,995.50
2023-05-12T08:49:46.473Z,995.51
2023-05-12T08:50:46.452Z,995.52
2023-05-12T08:51:54.492Z,995.54
2023-05-12T08:52:46.463Z,995.55
2023-05-12T08:53:46.417Z,995.55
2023-05-12T08:54:55.398Z,995.55
2023-05-12T08:55:54.402Z,995.55
2023-05-12T08:57:46.384Z,995.55
2023-05-12T08:58:46.448Z,995.58
2023-05-12T08:59:46.347Z,995.57
2023-05-12T09:00:46.371Z,995.57
2023-05-12T09:01:47.122Z,995.53
2023-05-12T09:02:53.276Z,995.51
2023-05-12T09:03:46.304Z,995.50
2023-05-12T09:04:46.399Z,995.48
2023-05-12T09:05:46.316Z,995.48
2023-05-12T09:06:46.288Z,995.49
2023-05-12T09:07:46.277Z,995.49
2023-05-12T09:08:46.282Z,995.47
2023-05-12T09:09:46.243Z,995.49
2023-05-12T09:10:46.268Z,995.48
2023-05-12T09:11:46.263Z,995.49
2023-05-12T09:12:46.243Z,995.52
2023-05-12T09:13:46.214Z,995.51
2023-05-12T09:14:46.187Z,995.50
2023-05-12T09:15:46.227Z,995.50
2023-05-12T09:16:46.219Z,995.52
2023-05-12T09:17:46.220Z,995.50
2023-05-12T09:18:46.190Z,995.50
2023-05-12T09:19:46.176Z,995.50
2023-05-12T09:20:46.155Z,995.46
2023-05-12T09:21:48.877Z,995.45
2023-05-12T09:22:46.106Z,995.44
2023-05-12T09:23:46.102Z,995.45
2023-05-12T09:24:46.306Z,995.46
2023-05-12T09:25:46.154Z,995.46
2023-05-12T09:26:46.083Z,995.44
2023-05-12T09:27:46.069Z,995.44
2023-05-12T09:28:46.072Z,995.40
2023-05-12T09:29:58.005Z,995.44
2023-05-12T09:30:46.027Z,995.43
2023-05-12T09:31:46.102Z,995.39
2023-05-12T09:32:46.044Z,995.39
2023-05-12T09:33:45.994Z,995.38
2023-05-12T09:34:46.005Z,995.38
2023-05-12T09:35:45.965Z,995.37
2023-05-12T09:36:45.986Z,995.40
2023-05-12T09:37:45.951Z,995.40
2023-05-12T09:38:45.981Z,995.42
2023-05-12T09:39:45.940Z,995.42
2023-05-12T09:40:45.916Z,995.43
2023-05-12T09:41:45.929Z,995.42
2023-05-12T09:42:45.922Z,995.44
2023-05-12T09:43:45.917Z,995.44
2023-05-12T09:44:45.887Z,995.44
2023-05-12T09:45:45.923Z,995.44
2023-05-12T09:46:45.859Z,995.49
2023-05-12T09:47:45.927Z,995.50
2023-05-12T09:48:46.122Z,995.50
2023-05-12T09:49:45.826Z,995.52
2023-05-12T09:50:47.946Z,995.54
2023-05-12T09:51:45.884Z,995.54
2023-05-12T09:52:45.816Z,995.55
2023-05-12T09:53:45.798Z,995.55
2023-05-12T09:54:45.782Z,995.57
2023-05-12T09:55:45.757Z,995.59
2023-05-12T09:56:45.789Z,995.61
2023-05-12T09:57:45.850Z,995.61
2023-05-12T09:58:45.819Z,995.61
2023-05-12T09:59:45.712Z,995.60
2023-05-12T10:01:45.757Z,995.62
2023-05-12T10:02:45.761Z,995.62
2023-05-12T10:03:45.671Z,995.63
2023-05-12T10:04:45.822Z,995.63
2023-05-12T10:05:45.655Z,995.62
2023-05-12T10:06:45.664Z,995.62
2023-05-12T10:07:45.667Z,995.63
2023-05-12T10:08:45.622Z,995.62
2023-05-12T10:09:45.666Z,995.61
2023-05-12T10:10:45.607Z,995.58
2023-05-12T10:11:45.653Z,995.60
2023-05-12T10:12:45.575Z,995.59
2023-05-12T10:13:45.560Z,995.61
2023-05-12T10:14:45.572Z,995.63
2023-05-12T10:15:45.593Z,995.62
2023-05-12T10:16:45.639Z,995.67
2023-05-12T10:17:45.533Z,995.62
2023-05-12T10:18:45.569Z,995.61
2023-05-12T10:19:45.564Z,995.56
2023-05-12T10:20:45.501Z,995.59
2023-05-12T10:21:45.492Z,995.59
2023-05-12T10:22:45.464Z,995.56
2023-05-12T10:23:45.477Z,995.58
2023-05-12T10:24:45.468Z,995.59
2023-05-12T10:25:45.479Z,995.54
2023-05-12T10:26:45.494Z,995.59
2023-05-12T10:27:45.418Z,995.67
2023-05-12T10:28:45.409Z,995.59
2023-05-12T10:29:45.441Z,995.62
2023-05-12T10:30:45.385Z,995.61
2023-05-12T10:31:45.557Z,995.64
2023-05-12T10:32:45.389Z,995.59
2023-05-12T10:33:45.425Z,995.59
2023-05-12T10:34:45.381Z,995.63
2023-05-12T10:35:46.230Z,995.59
2023-05-12T10:36:45.317Z,995.68
2023-05-12T10:37:45.414Z,995.62
2023-05-12T10:38:45.314Z,995.63
2023-05-12T10:39:45.359Z,995.62
2023-05-12T10:40:46.251Z,995.64
2023-05-12T10:41:45.268Z,995.65
2023-05-12T10:42:45.265Z,995.67
2023-05-12T10:43:45.267Z,995.68
2023-05-12T10:44:45.266Z,995.68
2023-05-12T10:45:45.230Z,995.68
2023-05-12T10:46:45.353Z,995.69
2023-05-12T10:47:45.235Z,995.69
2023-05-12T10:48:45.206Z,995.70
2023-05-12T10:49:45.653Z,995.70
2023-05-12T10:50:45.185Z,995.69
2023-05-12T10:51:45.164Z,995.69
2023-05-12T10:52:45.145Z,995.65
2023-05-12T10:53:51.170Z,995.66
2023-05-12T10:54:45.130Z,995.65
2023-05-12T10:55:45.272Z,995.61
2023-05-12T10:56:45.394Z,995.61
2023-05-12T10:57:45.375Z,995.61
2023-05-12T10:58:45.355Z,995.62
2023-05-12T10:59:45.284Z,995.63
2023-05-12T11:00:45.839Z,995.62
2023-05-12T11:01:45.543Z,995.63
2023-05-12T11:02:45.927Z,995.62
2023-05-12T11:03:46.062Z,995.61
2023-05-12T11:04:45.317Z,995.59
2023-05-12T11:05:45.789Z,995.60
2023-05-12T11:06:45.412Z,995.61
2023-05-12T11:07:45.607Z,995.61
2023-05-12T11:08:46.078Z,995.60
2023-05-12T11:09:56.645Z,995.60
2023-05-12T11:10:45.011Z,995.61
2023-05-12T11:11:45.755Z,995.59
2023-05-12T11:12:45.509Z,995.58
2023-05-12T11:13:45.148Z,995.59
2023-05-12T11:14:44.918Z,995.62
2023-05-12T11:15:44.925Z,995.61
2023-05-12T11:16:45.080Z,995.64
2023-05-12T11:17:44.908Z,995.65
2023-05-12T11:18:44.903Z,995.64
2023-05-12T11:19:44.864Z,995.64
2023-05-12T11:20:44.843Z,995.65
2023-05-12T11:21:44.920Z,995.64
2023-05-12T11:22:44.828Z,995.67
2023-05-12T11:23:45.344Z,995.66
2023-05-12T11:24:44.805Z,995.67
2023-05-12T11:25:44.827Z,995.67
2023-05-12T11:26:44.810Z,995.67
2023-05-12T11:27:44.786Z,995.68
2023-05-12T11:28:44.763Z,995.67
2023-05-12T11:29:44.756Z,995.68
2023-05-12T11:30:44.797Z,995.69
2023-05-12T11:31:44.750Z,995.70
2023-05-12T11:32:44.773Z,995.69
2023-05-12T11:33:44.719Z,995.68
2023-05-12T11:34:44.701Z,995.69
2023-05-12T11:35:44.801Z,995.68
2023-05-12T11:36:44.752Z,995.68
2023-05-12T11:37:44.694Z,995.68
2023-05-12T11:38:44.655Z,995.68
2023-05-12T11:39:44.732Z,995.65
2023-05-12T11:40:44.658Z,995.66
2023-05-12T11:41:44.626Z,995.69
2023-05-12T11:42:44.612Z,995.69
2023-05-12T11:43:44.647Z,995.67
2023-05-12T11:44:44.601Z,995.62
2023-05-12T11:45:44.637Z,995.62
2023-05-12T11:46:44.585Z,995.61
2023-05-12T11:47:44.626Z,995.63
2023-05-12T11:48:44.548Z,995.63
2023-05-12T11:49:44.557Z,995.66
2023-05-12T11:50:44.534Z,995.68
2023-05-12T11:51:44.517Z,995.63
2023-05-12T11:52:44.509Z,995.66
2023-05-12T11:53:44.523Z,995.60
2023-05-12T11:54:44.501Z,995.64
2023-05-12T11:55:44.496Z,995.66
2023-05-12T11:56:44.512Z,995.62
2023-05-12T11:57:44.507Z,995.66
2023-05-12T11:58:44.611Z,995.66
2023-05-12T11:59:44.460Z,995.65
2023-05-12T12:00:44.448Z,995.67
2023-05-12T12:01:44.433Z,995.66
2023-05-12T12:02:44.430Z,995.71
2023-05-12T12:03:44.488Z,995.70
2023-05-12T12:04:44.435Z,995.68
2023-05-12T12:05:44.388Z,995.71
2023-05-12T12:06:44.382Z,995.69
2023-05-12T12:07:44.373Z,995.68
2023-05-12T12:08:44.702Z,995.65
2023-05-12T12:09:44.631Z,995.62
2023-05-12T12:10:44.324Z,995.64
2023-05-12T12:11:44.317Z,995.60
2023-05-12T12:12:44.336Z,995.62
2023-05-12T12:13:44.306Z,995.62
2023-05-12T12:14:45.199Z,995.62
2023-05-12T12:15:44.323Z,995.62
2023-05-12T12:16:44.254Z,995.62
2023-05-12T12:17:44.297Z,995.63
2023-05-12T12:18:44.419Z,995.66
2023-05-12T12:19:44.258Z,995.64
2023-05-12T12:20:44.214Z,995.64
2023-05-12T12:21:44.239Z,995.62
2023-05-12T12:22:44.221Z,995.66
2023-05-12T12:23:50.788Z,995.63
2023-05-12T12:24:44.160Z,995.65
2023-05-12T12:25:44.184Z,995.65
2023-05-12T12:26:44.172Z,995.67
2023-05-12T12:27:44.167Z,995.68
2023-05-12T12:28:44.119Z,995.73
2023-05-12T12:29:44.115Z,995.70
2023-05-12T12:30:44.114Z,995.71
2023-05-12T12:31:44.349Z,995.70
2023-05-12T12:32:44.105Z,995.68